Terminal Aerodrome Forecast
Issued by NWS Upton, NY

Home | Current Version | Previous Version | Text Only | Print | Product List | Glossary On
Versions: 1 2 3 4 5 6 7 8 9 10 11 12 13 14 15 16 17 18 19 20 21 22 23 24 25 26 27 28 29 30 31 32 33 34
679
FTUS41 KOKX 271917 AAA
TAFEWR
TAF AMD
KEWR 271917Z 2719/2824 04011KT 6SM BR BKN009 OVC015
     FM272000 05013G21KT P6SM OVC009
     FM280000 04012KT P6SM OVC009
     FM280700 05006KT P6SM OVC012
     FM281300 06006KT P6SM OVC015
     FM281500 11005KT P6SM BKN020
     FM281700 16006KT P6SM BKN025
     FM282000 19010KT P6SM SCT030 SCT250=

USA.gov is the U.S. government's official web portal to all federal, state and local government web resources and services.